LIRZ

Perugia San Francesco d'Assisi – Umbria International Airport

Perugia, Italy
TAF LIRZ 181700Z 1818/1918 VRB05KT 9999 FEW040 BECMG 1910/1912 24010KT
Issued Valid From Valid To
Jul-18 @ 17:00 UTC
(5 hours ago)
Jul-18 @ 18:00 UTC
(4 hours ago)
Jul-19 @ 18:00 UTC
(in 20 hours)
Jul-18 @ 18:00 to Jul-19 @ 10:00
TAF LIRZ 181700Z 1818/1918 VRB05KT 9999 FEW040
Wind Visibility Clouds
Variable at 5 knots 10,000+ meters
  • Few at 4,000' AGL
Becoming Jul-19 @ 10:00 to Jul-19 @ 18:00
BECMG 1910/1912 24010KT
Wind Visibility Clouds
240° at 10 knots 10,000+ meters
  • Few at 4,000' AGL
TAF LIRZ 181700Z 1818/1918 VRB05KT 9999 FEW040 BECMG 1910/1912 24010KT
Issued Jul-18 @ 17:00 UTC
(5 hours ago)
Valid From Jul-18 @ 18:00 UTC
(4 hours ago)
Valid To Jul-19 @ 18:00 UTC
(in 20 hours)
Jul-18 @ 18:00 - Jul-19 @ 10:00
Wind Visibility
Variable at 5 knots 10,000+ meters
Clouds
  • Few at 4,000' AGL
Becoming Jul-19 @ 10:00 - Jul-19 @ 18:00
Wind Visibility
240° at 10 knots 10,000+ meters
Clouds
  • Few at 4,000' AGL